createdAt,value
2022-09-03T00:01:51.525Z,74.27
2022-09-03T00:04:46.529Z,74.62
2022-09-03T00:07:57.576Z,75.14
2022-09-03T00:11:05.650Z,74.83
2022-09-03T00:13:39.393Z,74.47
2022-09-03T00:16:12.542Z,74.95
2022-09-03T00:18:54.180Z,75.45
2022-09-03T00:21:36.890Z,74.85
2022-09-03T00:24:14.107Z,76.04
2022-09-03T00:26:51.513Z,75.84
2022-09-03T00:29:30.851Z,76.69
2022-09-03T00:32:06.751Z,77.06
2022-09-03T00:34:43.151Z,77.00
2022-09-03T00:37:14.350Z,76.65
2022-09-03T00:39:43.827Z,77.32
2022-09-03T00:42:47.598Z,77.81
2022-09-03T00:45:20.662Z,78.07
2022-09-03T00:48:01.840Z,78.29
2022-09-03T00:50:50.494Z,78.03
2022-09-03T00:53:34.033Z,77.55
2022-09-03T00:56:15.845Z,77.47
2022-09-03T00:59:06.630Z,77.13
2022-09-03T01:01:45.801Z,77.53
2022-09-03T01:04:25.286Z,76.91
2022-09-03T01:07:21.654Z,77.12
2022-09-03T01:10:27.030Z,77.48
2022-09-03T01:13:19.750Z,77.35
2022-09-03T01:16:43.495Z,77.90
2022-09-03T01:19:52.131Z,77.25
2022-09-03T01:22:57.009Z,77.32
2022-09-03T01:26:16.630Z,78.22
2022-09-03T01:28:59.968Z,77.98
2022-09-03T01:31:42.166Z,78.04
2022-09-03T01:34:49.185Z,78.41
2022-09-03T01:37:46.713Z,78.53
2022-09-03T01:40:38.029Z,78.44
2022-09-03T01:43:50.747Z,78.62
2022-09-03T01:46:25.951Z,78.80
2022-09-03T01:49:12.063Z,78.49
2022-09-03T01:51:41.061Z,78.33
2022-09-03T01:54:36.922Z,77.90
2022-09-03T01:57:06.802Z,76.91
2022-09-03T02:00:13.072Z,77.15
2022-09-03T02:02:46.099Z,78.00
2022-09-03T02:05:17.704Z,78.62
2022-09-03T02:07:54.515Z,78.03
2022-09-03T02:10:54.850Z,78.15
2022-09-03T02:13:31.617Z,78.25
2022-09-03T02:16:07.914Z,77.84
2022-09-03T02:18:45.681Z,78.18
2022-09-03T02:21:19.898Z,78.04
2022-09-03T02:23:48.966Z,77.73
2022-09-03T02:26:22.045Z,78.65
2022-09-03T02:28:51.349Z,79.05
2022-09-03T02:31:18.950Z,79.14
2022-09-03T02:33:48.930Z,79.04
2022-09-03T02:36:21.358Z,78.60
2022-09-03T02:38:48.657Z,78.35
2022-09-03T02:41:15.807Z,77.75
2022-09-03T02:44:03.231Z,77.46
2022-09-03T02:46:57.545Z,77.78
2022-09-03T02:49:25.077Z,77.49
2022-09-03T02:52:05.982Z,77.65
2022-09-03T02:54:35.962Z,77.78
2022-09-03T02:57:03.641Z,78.23
2022-09-03T02:59:31.842Z,78.33
2022-09-03T03:02:01.206Z,77.97
2022-09-03T03:04:30.695Z,78.45
2022-09-03T03:06:58.060Z,77.98
2022-09-03T03:09:25.824Z,78.33
2022-09-03T03:11:54.873Z,78.09
2022-09-03T03:14:22.542Z,77.94
2022-09-03T03:16:51.217Z,77.87
2022-09-03T03:19:19.077Z,77.86
2022-09-03T03:21:46.276Z,78.31
2022-09-03T03:24:14.341Z,77.96
2022-09-03T03:26:41.839Z,77.21
2022-09-03T03:29:15.597Z,77.51
2022-09-03T03:31:43.584Z,78.01
2022-09-03T03:34:10.836Z,78.55
2022-09-03T03:36:38.349Z,78.40
2022-09-03T03:39:05.440Z,78.80
2022-09-03T03:41:35.560Z,78.85
2022-09-03T03:44:06.694Z,78.48
2022-09-03T03:46:37.865Z,78.36
2022-09-03T03:49:06.561Z,78.31
2022-09-03T03:51:35.729Z,77.99
2022-09-03T03:54:05.182Z,77.92
2022-09-03T03:56:34.421Z,77.29
2022-09-03T03:59:01.982Z,77.49
2022-09-03T04:01:30.153Z,77.57
2022-09-03T04:03:59.958Z,77.27
2022-09-03T04:06:28.237Z,77.34
2022-09-03T04:08:55.607Z,77.25
2022-09-03T04:11:25.311Z,77.07
2022-09-03T04:13:53.799Z,77.51
2022-09-03T04:16:24.556Z,77.32
2022-09-03T04:18:54.033Z,77.04
2022-09-03T04:21:23.770Z,76.29
2022-09-03T04:23:52.535Z,75.59
2022-09-03T04:26:24.327Z,75.03
2022-09-03T04:28:51.953Z,75.24
2022-09-03T04:31:21.042Z,75.55
2022-09-03T04:33:48.308Z,75.78
2022-09-03T04:36:21.996Z,75.81
2022-09-03T04:38:53.753Z,75.52
2022-09-03T04:41:27.254Z,75.82
2022-09-03T04:43:57.434Z,75.23
2022-09-03T04:46:32.924Z,74.93
2022-09-03T04:49:00.848Z,75.55
2022-09-03T04:51:31.931Z,75.67
2022-09-03T04:54:01.632Z,76.30
2022-09-03T04:56:34.574Z,74.73
2022-09-03T04:59:05.925Z,74.73
2022-09-03T05:01:35.348Z,74.87
2022-09-03T05:04:03.136Z,75.63
2022-09-03T05:06:32.283Z,75.00
2022-09-03T05:09:00.342Z,74.73
2022-09-03T05:11:29.306Z,74.92
2022-09-03T05:13:59.011Z,74.99
2022-09-03T05:16:28.692Z,74.33
2022-09-03T05:18:59.454Z,74.64
2022-09-03T05:21:28.341Z,75.43
2022-09-03T05:23:55.799Z,74.94
2022-09-03T05:26:29.904Z,74.60
2022-09-03T05:29:01.089Z,73.65
2022-09-03T05:31:31.340Z,74.02
2022-09-03T05:34:01.604Z,73.63
2022-09-03T05:36:35.432Z,73.59
2022-09-03T05:39:05.117Z,74.50
2022-09-03T05:41:33.801Z,74.59
2022-09-03T05:44:01.869Z,75.23
2022-09-03T05:46:33.689Z,75.30
2022-09-03T05:49:03.380Z,75.02
2022-09-03T05:51:31.396Z,75.04
2022-09-03T05:53:59.191Z,75.31
2022-09-03T05:56:30.632Z,75.02
2022-09-03T05:59:01.339Z,74.13
2022-09-03T06:01:35.828Z,73.95
2022-09-03T06:04:10.287Z,73.57
2022-09-03T06:06:40.724Z,72.45
2022-09-03T06:09:14.222Z,71.79
2022-09-03T06:11:42.608Z,71.68
2022-09-03T06:14:13.162Z,71.06
2022-09-03T06:16:48.477Z,71.00
2022-09-03T06:19:16.547Z,71.12
2022-09-03T06:21:45.172Z,71.37
2022-09-03T06:24:16.683Z,70.98
2022-09-03T06:26:44.710Z,71.05
2022-09-03T06:29:12.610Z,71.89
2022-09-03T06:31:40.168Z,71.84
2022-09-03T06:34:08.037Z,71.25
2022-09-03T06:36:35.649Z,72.22
2022-09-03T06:39:03.670Z,73.07
2022-09-03T06:41:33.555Z,73.52
2022-09-03T06:44:05.347Z,73.08
2022-09-03T06:46:38.437Z,73.59
2022-09-03T06:49:05.916Z,74.00
2022-09-03T06:51:33.387Z,74.01
2022-09-03T06:54:04.397Z,73.89
2022-09-03T06:56:38.826Z,73.99
2022-09-03T06:59:13.839Z,73.75
2022-09-03T07:01:44.838Z,73.98
2022-09-03T07:04:20.432Z,73.71
2022-09-03T07:06:48.113Z,74.11
2022-09-03T07:09:17.742Z,74.37
2022-09-03T07:11:46.652Z,74.72
2022-09-03T07:14:15.705Z,74.40
2022-09-03T07:16:43.447Z,73.94
2022-09-03T07:19:12.875Z,74.08
2022-09-03T07:21:48.840Z,74.75
2022-09-03T07:24:19.441Z,74.78
2022-09-03T07:26:48.331Z,74.49
2022-09-03T07:29:16.186Z,74.22
2022-09-03T07:31:43.982Z,73.59
2022-09-03T07:34:13.582Z,73.79
2022-09-03T07:36:46.896Z,73.75
2022-09-03T07:39:17.644Z,74.67
2022-09-03T07:41:46.021Z,75.01
2022-09-03T07:44:15.697Z,74.68
2022-09-03T07:46:45.075Z,75.98
2022-09-03T07:49:12.573Z,75.42
2022-09-03T07:51:40.242Z,75.27
2022-09-03T07:54:10.609Z,75.79
2022-09-03T07:56:39.823Z,75.45
2022-09-03T07:59:07.513Z,74.67
2022-09-03T08:01:36.019Z,76.04
2022-09-03T08:04:05.959Z,76.28
2022-09-03T08:06:39.088Z,76.16
2022-09-03T08:09:09.548Z,76.92
2022-09-03T08:11:40.260Z,76.27
2022-09-03T08:14:10.978Z,75.11
2022-09-03T08:16:49.288Z,75.51
2022-09-03T08:19:18.554Z,76.66
2022-09-03T08:21:46.184Z,75.66
2022-09-03T08:24:16.600Z,74.50
2022-09-03T08:26:50.403Z,75.71
2022-09-03T08:29:20.280Z,75.76
2022-09-03T08:31:48.519Z,74.81
2022-09-03T08:34:17.108Z,76.50
2022-09-03T08:36:46.458Z,75.29
2022-09-03T08:39:13.491Z,75.76
2022-09-03T08:42:40.033Z,76.40
2022-09-03T08:45:15.852Z,74.85
2022-09-03T08:48:21.680Z,73.00
2022-09-03T08:50:59.533Z,74.45
2022-09-03T08:53:45.827Z,75.08
2022-09-03T08:56:33.032Z,76.93
2022-09-03T08:59:01.489Z,76.79
2022-09-03T09:01:57.448Z,74.48
2022-09-03T09:04:57.184Z,75.13
2022-09-03T09:08:04.585Z,75.07
2022-09-03T09:11:08.192Z,76.57
2022-09-03T09:14:28.418Z,76.96
2022-09-03T09:17:23.289Z,76.29
2022-09-03T09:20:02.913Z,75.61
2022-09-03T09:22:38.230Z,75.09
2022-09-03T09:25:22.388Z,74.18
2022-09-03T09:28:03.675Z,74.95
2022-09-03T09:30:32.565Z,74.14
2022-09-03T09:33:00.286Z,75.09
2022-09-03T09:35:27.786Z,74.94
2022-09-03T09:37:59.933Z,74.86
2022-09-03T09:40:44.616Z,74.25
2022-09-03T09:43:20.262Z,73.75
2022-09-03T09:45:53.289Z,74.91
2022-09-03T09:48:33.827Z,74.41
2022-09-03T09:51:12.387Z,74.42
2022-09-03T09:53:42.032Z,74.24
2022-09-03T09:56:21.202Z,73.10
2022-09-03T09:58:48.760Z,74.15
2022-09-03T10:01:25.307Z,75.18
2022-09-03T10:03:59.392Z,75.65
2022-09-03T10:06:49.820Z,75.65
2022-09-03T10:09:23.103Z,74.94
2022-09-03T10:12:35.413Z,75.05
2022-09-03T10:15:27.470Z,74.38
2022-09-03T10:18:08.207Z,75.55
2022-09-03T10:21:04.855Z,75.75
2022-09-03T10:24:15.350Z,75.15
2022-09-03T10:26:46.563Z,75.00
2022-09-03T10:29:29.191Z,75.09
2022-09-03T10:32:01.185Z,76.76
2022-09-03T10:34:38.657Z,76.28
2022-09-03T10:37:43.151Z,77.65
2022-09-03T10:40:36.776Z,78.34
2022-09-03T10:43:31.061Z,76.86
2022-09-03T10:46:24.329Z,74.08
2022-09-03T10:49:04.356Z,75.46
2022-09-03T10:51:45.127Z,71.33
2022-09-03T10:54:54.381Z,73.60
2022-09-03T10:57:54.458Z,73.31
2022-09-03T11:00:22.753Z,74.01
2022-09-03T11:03:26.485Z,75.21
2022-09-03T11:06:09.964Z,71.31
2022-09-03T11:08:54.056Z,72.54
2022-09-03T11:11:32.527Z,73.71
2022-09-03T11:14:13.288Z,73.69
2022-09-03T11:16:54.738Z,74.49
2022-09-03T11:19:34.737Z,72.84
2022-09-03T11:22:04.945Z,72.49
2022-09-03T11:24:34.994Z,71.40
2022-09-03T11:27:16.178Z,71.15
2022-09-03T11:30:03.370Z,70.22
2022-09-03T11:33:00.145Z,71.66
2022-09-03T11:35:33.721Z,69.32
2022-09-03T11:38:08.525Z,68.40
2022-09-03T11:40:38.772Z,69.90
2022-09-03T11:43:26.996Z,68.04
2022-09-03T11:46:33.799Z,68.30
2022-09-03T11:49:13.310Z,68.82
2022-09-03T11:51:44.571Z,68.90
2022-09-03T11:54:20.427Z,68.88
2022-09-03T11:56:50.084Z,71.05
2022-09-03T11:59:20.255Z,70.38
2022-09-03T12:02:09.406Z,69.72
2022-09-03T12:05:25.137Z,68.71
2022-09-03T12:07:59.961Z,68.19
2022-09-03T12:10:33.027Z,67.64
2022-09-03T12:13:32.947Z,68.28
2022-09-03T12:16:17.740Z,67.02
2022-09-03T12:18:47.600Z,67.92
2022-09-03T12:21:16.923Z,66.34
2022-09-03T12:23:45.911Z,65.77
2022-09-03T12:26:27.148Z,67.41
2022-09-03T12:29:00.328Z,65.97
2022-09-03T12:31:31.120Z,67.89
2022-09-03T12:34:02.394Z,68.07
2022-09-03T12:36:43.160Z,63.71
2022-09-03T12:40:04.859Z,66.05
2022-09-03T12:42:28.258Z,66.02
2022-09-03T12:44:55.986Z,66.47
2022-09-03T12:47:39.610Z,65.24
2022-09-03T12:50:24.270Z,64.62
2022-09-03T12:53:02.833Z,64.75
2022-09-03T12:55:41.008Z,65.33
2022-09-03T12:58:24.444Z,64.93
2022-09-03T13:01:04.409Z,66.04
2022-09-03T13:03:43.008Z,64.85
2022-09-03T13:06:15.153Z,63.85
2022-09-03T13:09:18.977Z,64.70
2022-09-03T13:11:46.149Z,63.93
2022-09-03T13:14:17.083Z,62.46
2022-09-03T13:16:44.140Z,65.20
2022-09-03T13:19:48.262Z,65.27
2022-09-03T13:23:04.735Z,63.43
2022-09-03T13:26:07.603Z,63.00
2022-09-03T13:29:03.239Z,62.54
2022-09-03T13:31:55.108Z,64.44
2022-09-03T13:34:47.923Z,63.12
2022-09-03T13:38:08.598Z,63.59
2022-09-03T13:40:58.297Z,62.48
2022-09-03T13:43:42.173Z,61.42
2022-09-03T13:46:20.617Z,62.27
2022-09-03T13:49:08.191Z,63.59
2022-09-03T13:51:56.569Z,63.69
2022-09-03T13:54:48.524Z,64.24
2022-09-03T13:57:42.244Z,64.71
2022-09-03T14:00:13.929Z,65.04
2022-09-03T14:03:06.554Z,64.52
2022-09-03T14:05:51.718Z,63.50
2022-09-03T14:08:35.340Z,63.46
2022-09-03T14:11:18.170Z,63.94
2022-09-03T14:14:20.153Z,63.40
2022-09-03T14:16:57.607Z,64.07
2022-09-03T14:19:57.649Z,64.19
2022-09-03T14:22:44.921Z,64.63
2022-09-03T14:25:18.164Z,64.40
2022-09-03T14:27:45.547Z,64.29
2022-09-03T14:30:33.174Z,64.30
2022-09-03T14:33:36.364Z,64.42
2022-09-03T14:36:17.307Z,63.77
2022-09-03T14:38:47.639Z,64.04
2022-09-03T14:41:43.965Z,64.28
2022-09-03T14:44:58.007Z,64.61
2022-09-03T14:47:28.244Z,64.59
2022-09-03T14:50:19.912Z,65.68
2022-09-03T14:52:56.867Z,64.44
2022-09-03T14:55:58.654Z,64.11
2022-09-03T14:59:00.866Z,63.82
2022-09-03T15:01:38.601Z,64.76
2022-09-03T15:04:52.550Z,64.63
2022-09-03T15:07:48.371Z,65.81
2022-09-03T15:11:06.693Z,67.02
2022-09-03T15:13:45.543Z,67.20
2022-09-03T15:16:50.731Z,68.96
2022-09-03T15:20:10.844Z,69.09
2022-09-03T15:22:58.157Z,68.03
2022-09-03T15:25:58.914Z,67.78
2022-09-03T15:28:56.775Z,67.86
2022-09-03T15:31:47.578Z,67.65
2022-09-03T15:34:51.180Z,68.40
2022-09-03T15:37:36.273Z,67.94
2022-09-03T15:40:17.772Z,68.89
2022-09-03T15:42:48.374Z,68.90
2022-09-03T15:45:50.775Z,68.15
2022-09-03T15:48:32.818Z,68.39
2022-09-03T15:51:25.183Z,68.24
2022-09-03T15:54:17.208Z,67.78
2022-09-03T15:57:42.514Z,67.76
2022-09-03T16:00:21.526Z,68.76
2022-09-03T16:03:10.463Z,68.35
2022-09-03T16:05:50.570Z,67.79
2022-09-03T16:08:44.681Z,67.62
2022-09-03T16:11:27.054Z,68.63
2022-09-03T16:14:12.537Z,67.69
2022-09-03T16:17:09.377Z,67.41
2022-09-03T16:20:23.879Z,67.84
2022-09-03T16:23:17.124Z,68.66
2022-09-03T16:26:05.792Z,68.42
2022-09-03T16:28:50.036Z,68.01
2022-09-03T16:31:45.351Z,68.38
2022-09-03T16:34:45.944Z,69.32
2022-09-03T16:37:22.117Z,68.65
2022-09-03T16:39:58.123Z,68.62
2022-09-03T16:42:44.163Z,68.99
2022-09-03T16:45:58.892Z,70.39
2022-09-03T16:49:38.326Z,70.05
2022-09-03T16:52:47.697Z,69.07
2022-09-03T16:55:36.573Z,68.38
2022-09-03T16:58:29.659Z,67.86
2022-09-03T17:01:35.273Z,67.32
2022-09-03T17:04:41.281Z,68.32
2022-09-03T17:07:41.669Z,68.49
2022-09-03T17:10:26.644Z,67.93
2022-09-03T17:13:27.478Z,68.71
2022-09-03T17:16:37.983Z,70.67
2022-09-03T17:19:28.505Z,69.46
2022-09-03T17:22:23.141Z,69.99
2022-09-03T17:25:07.830Z,70.11
2022-09-03T17:28:00.101Z,70.15
2022-09-03T17:31:12.414Z,70.60
2022-09-03T17:34:10.609Z,71.51
2022-09-03T17:36:40.274Z,70.58
2022-09-03T17:39:45.566Z,70.53
2022-09-03T17:42:29.274Z,71.87
2022-09-03T17:45:09.876Z,71.29
2022-09-03T17:48:24.346Z,72.68
2022-09-03T17:51:06.432Z,71.77
2022-09-03T17:53:51.518Z,71.59
2022-09-03T17:56:33.193Z,70.42
2022-09-03T17:59:29.281Z,71.93
2022-09-03T18:02:18.902Z,72.89
2022-09-03T18:05:07.545Z,71.96
2022-09-03T18:08:09.337Z,72.23
2022-09-03T18:10:53.250Z,72.28
2022-09-03T18:14:05.056Z,73.31
2022-09-03T18:16:45.516Z,72.17
2022-09-03T18:19:51.881Z,74.35
2022-09-03T18:22:44.625Z,73.40
2022-09-03T18:25:32.373Z,73.54
2022-09-03T18:28:30.642Z,73.21
2022-09-03T18:31:16.249Z,74.36
2022-09-03T18:34:01.807Z,73.90
2022-09-03T18:36:50.868Z,73.26
2022-09-03T18:39:46.953Z,73.14
2022-09-03T18:42:47.225Z,72.84
2022-09-03T18:47:00.022Z,71.88
2022-09-03T18:49:41.944Z,72.44
2022-09-03T18:53:01.100Z,72.11
2022-09-03T18:56:01.700Z,73.67
2022-09-03T18:59:32.420Z,72.84
2022-09-03T19:02:32.301Z,72.35
2022-09-03T19:05:52.393Z,72.04
2022-09-03T19:08:50.522Z,72.29
2022-09-03T19:12:08.413Z,73.61
2022-09-03T19:15:35.913Z,73.30
2022-09-03T19:18:38.580Z,74.06
2022-09-03T19:22:09.397Z,73.12
2022-09-03T19:24:54.762Z,71.17
2022-09-03T19:28:33.430Z,72.70
2022-09-03T19:31:35.398Z,72.73
2022-09-03T19:35:08.562Z,73.08
2022-09-03T19:38:28.395Z,73.83
2022-09-03T19:41:35.381Z,74.49
2022-09-03T19:44:29.819Z,75.34
2022-09-03T19:47:19.141Z,75.16
2022-09-03T19:50:43.099Z,75.30
2022-09-03T19:53:33.361Z,75.52
2022-09-03T19:56:32.941Z,76.17
2022-09-03T19:59:21.650Z,76.31
2022-09-03T20:02:09.055Z,76.70
2022-09-03T20:05:04.462Z,77.33
2022-09-03T20:07:53.104Z,77.45
2022-09-03T20:10:23.598Z,77.54
2022-09-03T20:13:09.217Z,77.97
2022-09-03T20:15:55.206Z,78.29
2022-09-03T20:18:50.931Z,77.72
2022-09-03T20:21:38.982Z,76.86
2022-09-03T20:24:24.120Z,74.43
2022-09-03T20:27:12.466Z,73.50
2022-09-03T20:30:10.302Z,73.81
2022-09-03T20:32:55.787Z,74.67
2022-09-03T20:36:10.028Z,73.88
2022-09-03T20:39:00.209Z,71.35
2022-09-03T20:42:12.034Z,70.71
2022-09-03T20:45:15.276Z,71.78
2022-09-03T20:48:06.623Z,72.03
2022-09-03T20:50:44.380Z,73.83
2022-09-03T20:53:14.102Z,74.32
2022-09-03T20:55:48.823Z,74.84
2022-09-03T20:58:37.267Z,75.13
2022-09-03T21:01:09.039Z,74.55
2022-09-03T21:03:49.703Z,73.57
2022-09-03T21:06:53.461Z,73.12
2022-09-03T21:09:53.276Z,72.45
2022-09-03T21:12:42.481Z,71.79
2022-09-03T21:15:12.770Z,70.68
2022-09-03T21:18:14.781Z,70.51
2022-09-03T21:20:57.189Z,72.29
2022-09-03T21:23:42.757Z,72.45
2022-09-03T21:26:28.233Z,72.54
2022-09-03T21:29:22.411Z,72.49
2022-09-03T21:32:07.913Z,72.19
2022-09-03T21:34:48.687Z,72.09
2022-09-03T21:37:16.029Z,71.99
2022-09-03T21:39:51.528Z,72.51
2022-09-03T21:42:43.594Z,72.33
2022-09-03T21:45:42.855Z,72.47
2022-09-03T21:48:15.894Z,73.09
2022-09-03T21:51:14.784Z,73.40
2022-09-03T21:54:06.346Z,73.70
2022-09-03T21:57:09.254Z,73.33
2022-09-03T21:59:56.626Z,73.85
2022-09-03T22:02:29.584Z,74.12
2022-09-03T22:04:57.917Z,74.45
2022-09-03T22:07:46.369Z,74.11
2022-09-03T22:10:38.261Z,74.14
2022-09-03T22:13:35.425Z,74.38
2022-09-03T22:16:23.293Z,75.17
2022-09-03T22:18:50.440Z,75.44
2022-09-03T22:21:38.555Z,75.51
2022-09-03T22:24:37.031Z,75.49
2022-09-03T22:27:25.887Z,75.33
2022-09-03T22:30:06.459Z,75.17
2022-09-03T22:33:04.736Z,75.06
2022-09-03T22:36:11.519Z,75.11
2022-09-03T22:39:04.725Z,74.83
2022-09-03T22:41:53.015Z,74.82
2022-09-03T22:45:04.202Z,74.57
2022-09-03T22:47:43.643Z,75.25
2022-09-03T22:50:43.967Z,75.49
2022-09-03T22:53:41.223Z,75.18
2022-09-03T22:56:14.823Z,75.19
2022-09-03T22:59:19.008Z,75.09
2022-09-03T23:01:58.611Z,74.84
2022-09-03T23:04:47.333Z,74.93
2022-09-03T23:07:55.035Z,74.65
2022-09-03T23:10:53.141Z,74.56
2022-09-03T23:13:33.467Z,74.17
2022-09-03T23:16:55.664Z,74.67
2022-09-03T23:19:40.478Z,73.97
2022-09-03T23:22:38.435Z,74.01
2022-09-03T23:25:21.349Z,74.14
2022-09-03T23:28:02.425Z,74.24
2022-09-03T23:30:29.629Z,73.73
2022-09-03T23:32:59.326Z,73.83
2022-09-03T23:35:29.727Z,73.16
2022-09-03T23:37:56.877Z,72.41
2022-09-03T23:40:44.781Z,71.89
2022-09-03T23:43:55.204Z,70.86
2022-09-03T23:46:32.464Z,70.54
2022-09-03T23:49:34.223Z,70.29
2022-09-03T23:52:21.444Z,69.71
2022-09-03T23:54:58.526Z,69.82
2022-09-03T23:57:49.729Z,70.42
